createdAt,value
2018-10-12T00:02:04.955Z,1.50
2018-10-12T00:04:32.531Z,2.20
2018-10-12T00:07:00.079Z,1.50
2018-10-12T00:09:27.611Z,1.73
2018-10-12T00:11:55.107Z,1.80
2018-10-12T00:14:22.611Z,1.70
2018-10-12T00:16:50.110Z,2.07
2018-10-12T00:19:17.607Z,2.10
2018-10-12T00:21:45.104Z,1.70
2018-10-12T00:24:12.607Z,2.30
2018-10-12T00:26:40.131Z,2.70
2018-10-12T00:29:07.639Z,2.57
2018-10-12T00:31:35.138Z,2.67
2018-10-12T00:34:02.658Z,2.47
2018-10-12T00:36:30.451Z,3.30
2018-10-12T00:38:57.939Z,2.97
2018-10-12T00:41:25.449Z,3.00
2018-10-12T00:43:52.932Z,2.80
2018-10-12T00:46:20.415Z,2.80
2018-10-12T00:48:47.940Z,2.87
2018-10-12T00:51:15.442Z,3.07
2018-10-12T00:53:42.939Z,2.93
2018-10-12T00:56:10.537Z,2.70
2018-10-12T00:58:38.068Z,2.50
2018-10-12T01:01:05.568Z,2.80
2018-10-12T01:03:33.078Z,2.80
2018-10-12T01:06:00.643Z,2.57
2018-10-12T01:08:28.196Z,2.63
2018-10-12T01:10:55.671Z,2.47
2018-10-12T01:13:23.172Z,2.83
2018-10-12T01:15:50.671Z,2.77
2018-10-12T01:18:18.187Z,2.53
2018-10-12T01:20:45.679Z,2.80
2018-10-12T01:23:13.222Z,2.80
2018-10-12T01:25:40.710Z,2.50
2018-10-12T01:28:08.291Z,2.37
2018-10-12T01:30:35.784Z,2.43
2018-10-12T01:33:04.570Z,2.50
2018-10-12T01:35:32.454Z,2.43
2018-10-12T01:37:59.995Z,2.33
2018-10-12T01:40:27.816Z,2.13
2018-10-12T01:42:55.311Z,2.37
2018-10-12T01:45:22.811Z,2.30
2018-10-12T01:47:50.323Z,2.37
2018-10-12T01:50:17.830Z,2.30
2018-10-12T01:52:45.303Z,2.10
2018-10-12T01:55:12.851Z,2.07
2018-10-12T01:57:40.385Z,2.93
2018-10-12T02:00:07.983Z,2.20
2018-10-12T02:02:35.560Z,2.13
2018-10-12T02:05:03.148Z,2.20
2018-10-12T02:07:30.679Z,1.80
2018-10-12T02:09:58.240Z,2.30
2018-10-12T02:12:25.711Z,1.80
2018-10-12T02:14:53.209Z,2.10
2018-10-12T02:17:20.728Z,2.13
2018-10-12T02:19:48.254Z,1.80
2018-10-12T02:22:15.762Z,2.10
2018-10-12T02:24:43.273Z,1.90
2018-10-12T02:27:10.791Z,1.73
2018-10-12T02:29:38.337Z,1.97
2018-10-12T02:32:05.908Z,1.90
2018-10-12T02:34:33.400Z,1.90
2018-10-12T02:37:00.894Z,1.70
2018-10-12T02:39:28.413Z,1.70
2018-10-12T02:41:55.897Z,1.50
2018-10-12T02:44:23.401Z,1.50
2018-10-12T02:46:50.919Z,1.73
2018-10-12T02:49:18.442Z,1.47
2018-10-12T02:51:45.935Z,1.93
2018-10-12T02:54:13.444Z,1.70
2018-10-12T02:56:40.992Z,1.50
2018-10-12T02:59:08.496Z,1.60
2018-10-12T03:01:36.021Z,1.63
2018-10-12T03:04:03.501Z,1.70
2018-10-12T03:06:31.009Z,1.53
2018-10-12T03:08:58.526Z,1.80
2018-10-12T03:11:26.043Z,1.70
2018-10-12T03:13:53.541Z,1.60
2018-10-12T03:16:21.066Z,1.60
2018-10-12T03:18:48.559Z,1.60
2018-10-12T03:21:16.068Z,1.80
2018-10-12T03:23:43.571Z,1.77
2018-10-12T03:26:11.144Z,1.97
2018-10-12T03:28:38.646Z,1.50
2018-10-12T03:31:06.698Z,1.83
2018-10-12T03:33:34.500Z,1.70
2018-10-12T03:36:02.412Z,1.83
2018-10-12T03:38:29.971Z,1.73
2018-10-12T03:40:57.599Z,2.17
2018-10-12T03:43:25.135Z,1.80
2018-10-12T03:45:52.675Z,2.33
2018-10-12T03:48:20.187Z,1.93
2018-10-12T03:50:47.698Z,3.57
2018-10-12T03:53:15.734Z,2.20
2018-10-12T03:55:43.228Z,2.27
2018-10-12T03:58:10.717Z,1.90
2018-10-12T04:00:38.225Z,2.00
2018-10-12T04:03:05.715Z,2.13
2018-10-12T04:05:33.238Z,1.97
2018-10-12T04:08:00.777Z,2.00
2018-10-12T04:10:28.282Z,1.90
2018-10-12T04:12:55.795Z,2.00
2018-10-12T04:15:23.304Z,2.00
2018-10-12T04:17:50.835Z,2.07
2018-10-12T04:20:18.355Z,1.70
2018-10-12T04:22:45.840Z,2.20
2018-10-12T04:25:13.383Z,1.83
2018-10-12T04:27:40.939Z,2.23
2018-10-12T04:30:08.431Z,1.87
2018-10-12T04:32:35.904Z,2.20
2018-10-12T04:35:03.531Z,2.00
2018-10-12T04:37:32.041Z,2.40
2018-10-12T04:40:02.986Z,2.10
2018-10-12T04:42:30.508Z,2.23
2018-10-12T04:44:58.221Z,1.93
2018-10-12T04:47:28.592Z,2.20
2018-10-12T04:49:56.563Z,1.83
2018-10-12T04:52:25.452Z,1.87
2018-10-12T04:54:53.003Z,2.77
2018-10-12T04:57:20.551Z,1.90
2018-10-12T04:59:48.036Z,2.00
2018-10-12T05:02:15.584Z,1.70
2018-10-12T05:04:43.115Z,2.33
2018-10-12T05:07:10.640Z,2.03
2018-10-12T05:09:38.137Z,2.03
2018-10-12T05:12:06.921Z,2.20
2018-10-12T05:14:34.496Z,2.13
2018-10-12T05:17:02.049Z,2.10
2018-10-12T05:19:29.611Z,2.13
2018-10-12T05:21:57.111Z,2.30
2018-10-12T05:24:24.627Z,2.33
2018-10-12T05:26:52.174Z,2.50
2018-10-12T05:29:19.725Z,2.40
2018-10-12T05:31:47.295Z,2.30
2018-10-12T05:34:14.883Z,2.37
2018-10-12T05:36:42.368Z,2.47
2018-10-12T05:39:11.515Z,2.37
2018-10-12T05:41:39.043Z,2.90
2018-10-12T05:44:06.554Z,2.70
2018-10-12T05:46:34.066Z,3.10
2018-10-12T05:49:13.028Z,2.70
2018-10-12T05:51:40.540Z,2.90
2018-10-12T05:54:08.167Z,2.97
2018-10-12T05:56:35.972Z,2.80
2018-10-12T05:59:04.182Z,3.00
2018-10-12T06:01:31.700Z,3.10
2018-10-12T06:03:59.210Z,3.10
2018-10-12T06:06:26.724Z,3.27
2018-10-12T06:08:54.224Z,3.47
2018-10-12T06:11:21.913Z,4.00
2018-10-12T06:13:49.343Z,3.73
2018-10-12T06:16:16.848Z,3.67
2018-10-12T06:18:44.391Z,3.40
2018-10-12T06:21:11.899Z,3.07
2018-10-12T06:23:39.404Z,3.20
2018-10-12T06:26:07.040Z,3.57
2018-10-12T06:28:34.575Z,3.40
2018-10-12T06:31:02.095Z,3.97
2018-10-12T06:33:29.585Z,4.03
2018-10-12T06:35:57.131Z,3.70
2018-10-12T06:38:24.639Z,4.10
2018-10-12T06:40:52.169Z,4.93
2018-10-12T06:43:19.650Z,4.13
2018-10-12T06:45:47.134Z,4.10
2018-10-12T06:48:14.634Z,3.90
2018-10-12T06:50:42.964Z,4.03
2018-10-12T06:53:10.932Z,3.83
2018-10-12T06:55:38.439Z,4.00
2018-10-12T06:58:06.531Z,3.57
2018-10-12T07:00:34.052Z,4.40
2018-10-12T07:03:01.570Z,2.97
2018-10-12T07:05:29.096Z,3.73
2018-10-12T07:07:56.564Z,3.30
2018-10-12T07:10:24.105Z,3.30
2018-10-12T07:12:51.627Z,2.73
2018-10-12T07:15:19.132Z,3.33
2018-10-12T07:17:46.698Z,3.00
2018-10-12T07:20:14.200Z,3.30
2018-10-12T07:22:41.721Z,3.00
2018-10-12T07:25:09.308Z,3.00
2018-10-12T07:27:36.808Z,2.90
2018-10-12T07:30:04.649Z,2.97
2018-10-12T07:32:32.251Z,2.70
2018-10-12T07:34:59.780Z,2.60
2018-10-12T07:37:27.379Z,2.67
2018-10-12T07:39:54.849Z,2.70
2018-10-12T07:42:22.487Z,3.17
2018-10-12T07:44:50.044Z,2.93
2018-10-12T07:47:17.600Z,3.23
2018-10-12T07:49:45.074Z,3.27
2018-10-12T07:52:12.705Z,3.40
2018-10-12T07:54:40.305Z,2.80
2018-10-12T07:57:09.775Z,3.03
2018-10-12T07:59:37.550Z,3.13
2018-10-12T08:02:05.037Z,3.10
2018-10-12T08:04:32.552Z,4.07
2018-10-12T08:07:00.057Z,3.30
2018-10-12T08:09:27.618Z,2.97
2018-10-12T08:11:55.066Z,2.97
2018-10-12T08:14:22.609Z,3.30
2018-10-12T08:16:50.140Z,3.37
2018-10-12T08:19:17.656Z,2.60
2018-10-12T08:21:45.168Z,3.30
2018-10-12T08:24:12.665Z,2.73
2018-10-12T08:26:40.175Z,3.10
2018-10-12T08:29:07.704Z,3.00
2018-10-12T08:31:35.304Z,3.13
2018-10-12T08:34:02.745Z,2.60
2018-10-12T08:36:30.313Z,2.70
2018-10-12T08:38:57.829Z,2.70
2018-10-12T08:41:25.342Z,2.40
2018-10-12T08:43:52.863Z,2.33
2018-10-12T08:46:20.460Z,2.10
2018-10-12T08:48:47.976Z,2.20
2018-10-12T08:51:15.472Z,2.10
2018-10-12T08:53:43.030Z,1.93
2018-10-12T08:56:10.555Z,2.20
2018-10-12T08:58:38.066Z,2.10
2018-10-12T09:01:05.963Z,2.40
2018-10-12T09:03:33.460Z,2.47
2018-10-12T09:06:00.956Z,2.70
2018-10-12T09:08:28.455Z,2.80
2018-10-12T09:10:55.950Z,2.77
2018-10-12T09:13:23.448Z,3.00
2018-10-12T09:15:51.017Z,3.23
2018-10-12T09:18:18.580Z,3.07
2018-10-12T09:20:46.179Z,3.83
2018-10-12T09:23:13.692Z,3.83
2018-10-12T09:25:41.239Z,3.53
2018-10-12T09:28:08.751Z,3.73
2018-10-12T09:30:36.240Z,3.50
2018-10-12T09:33:03.809Z,4.13
2018-10-12T09:35:31.323Z,3.90
2018-10-12T09:37:58.855Z,4.20
2018-10-12T09:40:26.363Z,3.90
2018-10-12T09:42:53.863Z,3.53
2018-10-12T09:45:21.991Z,3.53
2018-10-12T09:47:49.486Z,4.17
2018-10-12T09:50:17.010Z,4.17
2018-10-12T09:52:44.506Z,3.70
2018-10-12T09:55:12.047Z,3.80
2018-10-12T09:57:39.608Z,3.40
2018-10-12T10:00:12.903Z,3.10
2018-10-12T10:02:43.972Z,3.30
2018-10-12T10:05:11.471Z,3.13
2018-10-12T10:07:39.806Z,3.27
2018-10-12T10:10:07.311Z,3.40
2018-10-12T10:12:34.790Z,3.20
2018-10-12T10:15:02.343Z,3.30
2018-10-12T10:17:29.848Z,2.73
2018-10-12T10:19:57.374Z,2.80
2018-10-12T10:22:25.021Z,2.87
2018-10-12T10:24:52.540Z,3.10
2018-10-12T10:27:20.013Z,2.70
2018-10-12T10:29:47.585Z,2.57
2018-10-12T10:32:15.075Z,2.90
2018-10-12T10:34:42.575Z,3.17
2018-10-12T10:37:10.144Z,2.53
2018-10-12T10:39:37.640Z,2.50
2018-10-12T10:42:05.263Z,2.80
2018-10-12T10:44:32.763Z,2.50
2018-10-12T10:47:00.292Z,2.20
2018-10-12T10:49:27.821Z,2.07
2018-10-12T10:51:55.361Z,2.37
2018-10-12T10:54:22.850Z,2.03
2018-10-12T10:56:50.393Z,1.90
2018-10-12T10:59:17.928Z,1.97
2018-10-12T11:01:45.434Z,1.83
2018-10-12T11:04:12.937Z,2.30
2018-10-12T11:06:40.468Z,2.10
2018-10-12T11:09:08.709Z,1.80
2018-10-12T11:11:36.308Z,2.20
2018-10-12T11:14:03.835Z,2.27
2018-10-12T11:16:31.348Z,2.27
2018-10-12T11:18:58.860Z,2.00
2018-10-12T11:21:26.415Z,2.00
2018-10-12T11:23:53.938Z,2.00
2018-10-12T11:26:21.491Z,2.03
2018-10-12T11:28:50.283Z,1.90
2018-10-12T11:31:17.819Z,2.00
2018-10-12T11:33:45.320Z,2.17
2018-10-12T11:36:12.835Z,2.10
2018-10-12T11:38:40.343Z,1.80
2018-10-12T11:41:07.875Z,1.80
2018-10-12T11:43:36.807Z,1.93
2018-10-12T11:46:04.301Z,2.13
2018-10-12T11:48:31.802Z,2.17
2018-10-12T11:50:59.670Z,2.00
2018-10-12T11:53:27.176Z,2.60
2018-10-12T11:55:54.770Z,2.20
2018-10-12T11:58:22.478Z,2.00
2018-10-12T12:00:50.018Z,1.90
2018-10-12T12:03:17.511Z,2.20
2018-10-12T12:05:45.031Z,2.17
2018-10-12T12:08:12.518Z,1.67
2018-10-12T12:10:40.586Z,2.00
2018-10-12T12:13:08.170Z,1.70
2018-10-12T12:15:35.982Z,1.93
2018-10-12T12:18:03.489Z,2.23
2018-10-12T12:20:31.004Z,1.93
2018-10-12T12:22:58.517Z,1.80
2018-10-12T12:25:26.023Z,1.63
2018-10-12T12:27:53.514Z,1.60
2018-10-12T12:30:21.395Z,1.53
2018-10-12T12:32:48.968Z,1.60
2018-10-12T12:35:16.727Z,1.93
2018-10-12T12:37:43.971Z,1.63
2018-10-12T12:40:11.500Z,1.40
2018-10-12T12:42:39.016Z,1.40
2018-10-12T12:45:07.213Z,1.53
2018-10-12T12:47:34.948Z,1.50
2018-10-12T12:50:02.390Z,1.53
2018-10-12T12:52:29.908Z,1.40
2018-10-12T12:54:57.420Z,1.30
2018-10-12T12:57:24.959Z,1.30
2018-10-12T12:59:52.475Z,1.27
2018-10-12T13:02:20.065Z,1.17
2018-10-12T13:04:47.588Z,1.40
2018-10-12T13:07:15.073Z,1.30
2018-10-12T13:09:42.599Z,1.47
2018-10-12T13:12:10.108Z,1.30
2018-10-12T13:14:37.616Z,1.40
2018-10-12T13:17:05.157Z,1.17
2018-10-12T13:19:32.722Z,1.50
2018-10-12T13:22:00.200Z,1.47
2018-10-12T13:24:27.712Z,1.50
2018-10-12T13:26:55.254Z,1.17
2018-10-12T13:29:22.763Z,1.50
2018-10-12T13:31:50.296Z,1.30
2018-10-12T13:34:17.892Z,1.40
2018-10-12T13:36:45.427Z,1.83
2018-10-12T13:39:13.143Z,1.70
2018-10-12T13:41:40.651Z,1.50
2018-10-12T13:44:08.944Z,1.20
2018-10-12T13:46:36.847Z,1.50
2018-10-12T13:49:04.447Z,1.33
2018-10-12T13:51:32.267Z,1.50
2018-10-12T13:53:59.755Z,1.43
2018-10-12T13:56:27.291Z,1.37
2018-10-12T13:58:54.826Z,1.30
2018-10-12T14:01:22.363Z,1.10
2018-10-12T14:03:49.864Z,1.33
2018-10-12T14:06:19.215Z,1.90
2018-10-12T14:08:46.695Z,1.53
2018-10-12T14:11:14.200Z,1.60
2018-10-12T14:13:41.699Z,1.50
2018-10-12T14:16:09.205Z,1.30
2018-10-12T14:18:36.985Z,1.93
2018-10-12T14:21:04.399Z,1.87
2018-10-12T14:23:31.889Z,1.70
2018-10-12T14:25:59.395Z,1.90
2018-10-12T14:28:26.999Z,2.10
2018-10-12T14:30:54.515Z,1.70
2018-10-12T14:33:22.044Z,1.93
2018-10-12T14:35:49.587Z,2.00
2018-10-12T14:38:17.078Z,2.33
2018-10-12T14:40:44.592Z,1.80
2018-10-12T14:43:12.102Z,1.63
2018-10-12T14:45:39.604Z,2.20
2018-10-12T14:48:07.107Z,2.67
2018-10-12T14:50:34.592Z,1.83
2018-10-12T14:53:02.186Z,1.90
2018-10-12T14:55:29.621Z,1.90
2018-10-12T14:57:57.151Z,1.80
2018-10-12T15:00:24.705Z,1.77
2018-10-12T15:02:52.234Z,1.70
2018-10-12T15:05:20.018Z,1.80
2018-10-12T15:07:47.521Z,1.80
2018-10-12T15:10:15.031Z,1.70
2018-10-12T15:12:42.535Z,1.97
2018-10-12T15:15:25.802Z,1.93
2018-10-12T15:17:54.271Z,1.60
2018-10-12T15:20:22.080Z,1.93
2018-10-12T15:22:49.813Z,1.80
2018-10-12T15:25:17.392Z,1.93
2018-10-12T15:27:45.115Z,1.90
2018-10-12T15:30:13.209Z,1.97
2018-10-12T15:32:40.823Z,1.80
2018-10-12T15:35:08.625Z,2.10
2018-10-12T15:37:36.527Z,1.97
2018-10-12T15:40:04.023Z,1.90
2018-10-12T15:42:31.580Z,2.10
2018-10-12T15:44:59.063Z,2.37
2018-10-12T15:47:26.607Z,2.10
2018-10-12T15:49:54.134Z,2.07
2018-10-12T15:52:21.634Z,2.23
2018-10-12T15:54:49.496Z,1.90
2018-10-12T15:57:19.024Z,2.30
2018-10-12T15:59:47.632Z,2.20
2018-10-12T16:02:15.459Z,1.77
2018-10-12T16:04:43.460Z,2.30
2018-10-12T16:07:11.079Z,2.13
2018-10-12T16:09:38.592Z,2.00
2018-10-12T16:12:06.119Z,1.90
2018-10-12T16:14:33.765Z,2.10
2018-10-12T16:17:01.218Z,2.00
2018-10-12T16:19:28.742Z,2.20
2018-10-12T16:21:56.302Z,2.00
2018-10-12T16:24:23.855Z,2.07
2018-10-12T16:26:51.343Z,2.30
2018-10-12T16:29:18.828Z,2.00
2018-10-12T16:31:46.329Z,2.30
2018-10-12T16:34:13.823Z,2.23
2018-10-12T16:36:41.395Z,2.37
2018-10-12T16:39:09.588Z,2.57
2018-10-12T16:41:37.568Z,2.30
2018-10-12T16:44:05.128Z,2.33
2018-10-12T16:46:32.632Z,2.47
2018-10-12T16:49:00.226Z,2.80
2018-10-12T16:51:27.779Z,2.70
2018-10-12T16:53:55.403Z,2.77
2018-10-12T16:56:22.912Z,3.20
2018-10-12T16:58:50.473Z,3.43
2018-10-12T17:01:18.028Z,3.40
2018-10-12T17:03:45.564Z,3.20
2018-10-12T17:06:13.093Z,3.20
2018-10-12T17:08:40.607Z,3.27
2018-10-12T17:11:08.130Z,3.20
2018-10-12T17:13:35.638Z,3.10
2018-10-12T17:16:03.227Z,3.20
2018-10-12T17:18:30.784Z,3.60
2018-10-12T17:20:58.265Z,3.17
2018-10-12T17:23:25.880Z,3.70
2018-10-12T17:25:53.309Z,3.77
2018-10-12T17:28:20.890Z,3.70
2018-10-12T17:30:48.387Z,3.87
2018-10-12T17:33:15.932Z,3.97
2018-10-12T17:35:43.491Z,3.57
2018-10-12T17:38:11.045Z,3.60
2018-10-12T17:40:38.556Z,3.70
2018-10-12T17:43:06.090Z,3.60
2018-10-12T17:45:33.640Z,3.77
2018-10-12T17:48:01.163Z,4.20
2018-10-12T17:50:28.712Z,4.77
2018-10-12T17:52:56.252Z,4.20
2018-10-12T17:55:23.800Z,4.03
2018-10-12T17:57:51.314Z,4.10
2018-10-12T18:00:19.176Z,3.70
2018-10-12T18:02:46.564Z,4.10
2018-10-12T18:05:14.054Z,4.30
2018-10-12T18:07:41.578Z,4.37
2018-10-12T18:10:09.918Z,5.10
2018-10-12T18:12:37.411Z,3.83
2018-10-12T18:15:06.975Z,4.70
2018-10-12T18:17:34.528Z,4.13
2018-10-12T18:20:02.069Z,3.97
2018-10-12T18:22:29.698Z,4.20
2018-10-12T18:24:57.231Z,4.10
2018-10-12T18:27:24.720Z,4.03
2018-10-12T18:29:52.597Z,4.33
2018-10-12T18:32:20.078Z,4.13
2018-10-12T18:34:47.579Z,4.00
2018-10-12T18:37:15.101Z,3.40
2018-10-12T18:39:42.614Z,3.70
2018-10-12T18:42:10.120Z,4.67
2018-10-12T18:44:37.625Z,4.43
2018-10-12T18:47:05.159Z,4.10
2018-10-12T18:49:32.651Z,4.20
2018-10-12T18:52:00.643Z,4.00
2018-10-12T18:54:28.183Z,4.40
2018-10-12T18:56:55.736Z,4.17
2018-10-12T18:59:23.268Z,4.30
2018-10-12T19:01:50.801Z,4.10
2018-10-12T19:04:18.324Z,4.50
2018-10-12T19:06:46.080Z,3.90
2018-10-12T19:09:14.204Z,3.97
2018-10-12T19:11:41.732Z,4.27
2018-10-12T19:14:09.400Z,4.37
2018-10-12T19:16:36.953Z,4.17
2018-10-12T19:19:05.275Z,4.33
2018-10-12T19:21:32.915Z,4.10
2018-10-12T19:24:01.454Z,4.20
2018-10-12T19:26:28.909Z,4.00
2018-10-12T19:28:56.502Z,3.90
2018-10-12T19:31:24.164Z,4.20
2018-10-12T19:33:52.050Z,4.30
2018-10-12T19:36:20.003Z,3.97
2018-10-12T19:38:47.538Z,4.00
2018-10-12T19:41:15.130Z,4.40
2018-10-12T19:43:42.652Z,3.90
2018-10-12T19:46:10.193Z,3.80
2018-10-12T19:48:37.722Z,3.90
2018-10-12T19:51:05.247Z,3.77
2018-10-12T19:53:32.788Z,3.60
2018-10-12T19:56:00.306Z,3.90
2018-10-12T19:58:27.984Z,3.93
2018-10-12T20:00:55.492Z,3.60
2018-10-12T20:03:23.031Z,3.50
2018-10-12T20:05:50.539Z,3.70
2018-10-12T20:08:18.122Z,3.07
2018-10-12T20:10:46.955Z,3.40
2018-10-12T20:13:14.465Z,3.33
2018-10-12T20:15:42.043Z,3.37
2018-10-12T20:18:09.536Z,3.03
2018-10-12T20:20:37.082Z,3.20
2018-10-12T20:23:04.875Z,3.40
2018-10-12T20:25:32.387Z,3.53
2018-10-12T20:27:59.875Z,3.50
2018-10-12T20:30:27.413Z,3.70
2018-10-12T20:32:54.935Z,3.57
2018-10-12T20:35:22.499Z,3.63
2018-10-12T20:37:50.018Z,3.00
2018-10-12T20:40:17.548Z,3.17
2018-10-12T20:42:45.064Z,3.37
2018-10-12T20:45:12.575Z,3.70
2018-10-12T20:47:40.114Z,3.50
2018-10-12T20:50:07.600Z,2.90
2018-10-12T20:52:35.155Z,3.30
2018-10-12T20:55:02.695Z,3.47
2018-10-12T20:57:30.254Z,3.10
2018-10-12T20:59:57.776Z,3.40
2018-10-12T21:02:25.267Z,3.63
2018-10-12T21:04:52.791Z,3.40
2018-10-12T21:07:20.327Z,3.87
2018-10-12T21:09:47.845Z,3.40
2018-10-12T21:12:15.331Z,3.40
2018-10-12T21:14:44.009Z,3.60
2018-10-12T21:17:11.499Z,3.63
2018-10-12T21:19:39.009Z,3.37
2018-10-12T21:22:06.499Z,3.60
2018-10-12T21:24:33.995Z,3.33
2018-10-12T21:27:01.502Z,3.40
2018-10-12T21:29:30.172Z,3.23
2018-10-12T21:31:57.658Z,3.40
2018-10-12T21:34:25.162Z,2.97
2018-10-12T21:36:52.655Z,3.57
2018-10-12T21:39:20.199Z,4.50
2018-10-12T21:41:49.734Z,3.80
2018-10-12T21:44:17.250Z,3.97
2018-10-12T21:46:44.907Z,3.40
2018-10-12T21:49:12.664Z,3.73
2018-10-12T21:51:40.170Z,3.93
2018-10-12T21:54:07.713Z,4.13
2018-10-12T21:56:35.213Z,5.13
2018-10-12T21:59:02.780Z,4.13
2018-10-12T22:01:30.294Z,4.20
2018-10-12T22:03:57.799Z,3.63
2018-10-12T22:06:25.319Z,3.70
2018-10-12T22:08:57.388Z,3.60
2018-10-12T22:11:24.897Z,4.23
2018-10-12T22:13:52.474Z,3.67
2018-10-12T22:16:20.972Z,4.13
2018-10-12T22:18:48.484Z,3.37
2018-10-12T22:21:16.016Z,3.33
2018-10-12T22:23:43.516Z,3.83
2018-10-12T22:26:11.050Z,3.63
2018-10-12T22:28:38.560Z,3.70
2018-10-12T22:31:06.386Z,3.40
2018-10-12T22:33:33.899Z,3.50
2018-10-12T22:36:01.420Z,3.60
2018-10-12T22:38:29.828Z,3.80
2018-10-12T22:40:57.424Z,3.90
2018-10-12T22:43:24.913Z,3.47
2018-10-12T22:45:52.418Z,3.83
2018-10-12T22:48:19.916Z,3.70
2018-10-12T22:50:47.423Z,4.20
2018-10-12T22:53:14.908Z,4.30
2018-10-12T22:55:42.416Z,3.70
2018-10-12T22:58:09.919Z,3.60
2018-10-12T23:00:37.428Z,4.03
2018-10-12T23:03:04.944Z,3.97
2018-10-12T23:05:32.454Z,3.73
2018-10-12T23:07:59.952Z,3.73
2018-10-12T23:10:27.519Z,3.70
2018-10-12T23:12:55.663Z,3.90
2018-10-12T23:15:23.247Z,3.87
2018-10-12T23:17:50.734Z,3.80
2018-10-12T23:20:18.249Z,4.67
2018-10-12T23:22:46.307Z,3.90
2018-10-12T23:25:13.812Z,3.80
2018-10-12T23:27:41.324Z,3.93
2018-10-12T23:30:09.084Z,3.80
2018-10-12T23:32:36.671Z,3.97
2018-10-12T23:35:04.315Z,4.13
2018-10-12T23:37:31.815Z,3.73
2018-10-12T23:39:59.302Z,4.27
2018-10-12T23:42:26.840Z,4.30
2018-10-12T23:44:54.331Z,4.40
2018-10-12T23:47:21.956Z,4.03
2018-10-12T23:49:49.351Z,3.80
2018-10-12T23:52:16.888Z,3.90
2018-10-12T23:54:44.410Z,4.17
2018-10-12T23:57:11.958Z,3.57
2018-10-12T23:59:39.507Z,3.87
